Архив погоды в Гунибе

Метеограмма Гуниб
Вторник, 11 Декабря
Время местн. Темп Ветер Видим Явления Облачность нижн/средн/верх Атм. давл. Влжн Точка росы ВНГО R Сост. почвы Tg s
Напр Скр Прв ур.ст ур.м изм
09:00 +4.5° штиль 0 - 50 км - переменная облачность 640 632 +0.2 36% -9.3° более 2.5 км - - - -
06:00 +1.1° З 1 - 10 км - ясно 640 632 -0.2 44% -9.8° более 2.5 км - Замерзшая - -
03:00 +0.7° З,С-З 1 - 10 км - ясно 640 632 +0.3 43% -10.5° более 2.5 км - - - -
00:00 +1.1° З 1 - 10 км - ясно 639 632 -0.2 38% -11.7° более 2.5 км - - - -
Понедельник, 10 Декабря
Время местн. Темп Ветер Видим Явления Облачность нижн/средн/верх Атм. давл. Влжн Точка росы ВНГО R Сост. почвы Tg s
Напр Скр Прв ур.ст ур.м изм
21:00 +1.4° штиль 0 - 10 км - ясно 640 632 -0.4 38% -11.4° более 2.5 км - - - -
18:00 +3.4° З,С-З 1 - 10 км - переменная облачность 640 632 +0.3 33% -11.4° более 2.5 км - - - -
15:00 +5.5° З 1 - 50 км - переменная облачность 640 632 -0.7 45% -5.5° более 2.5 км - - - -
12:00 +5.3° Ю-В 1 - 50 км - ясно 640 633 -1.3 41% -6.9° более 2.5 км - - - -
09:00 +0.8° штиль 0 - 50 км - ясно 642 634 -0.1 59% -6.3° более 2.5 км - - - -
06:00 -3° З,С-З 1 - 10 км - ясно 642 634 -0.7 76% -6.7° более 2.5 км - - - -
03:00 -3° штиль 0 - 10 км - ясно 642 635 -0.4 82% -5.6° более 2.5 км - - - -
00:00 -2.8° З 1 - 10 км - ясно 643 635 -0.4 87% -4.6° более 2.5 км - - - -
Воскресенье, 9 Декабря
Время местн. Темп Ветер Видим Явления Облачность нижн/средн/верх Атм. давл. Влжн Точка росы ВНГО R Сост. почвы Tg s
Напр Скр Прв ур.ст ур.м изм
21:00 -2.2° штиль 0 - 10 км - ясно 643 635 +0.2 96% -2.8° более 2.5 км - - - -
18:00 -1.5° З 1 - 10 км - ясно 643 635 +0.4 87% -3.3° более 2.5 км - - - -
15:00 +2.2° штиль 0 - 50 км - ясно 643 635 -0.1 73% -2.2° более 2.5 км - - - -
12:00 +0.9° С-В 1 - 20 км - облачно 643 635 -0.6 79% -2.3° 1 км - - - -
09:00 -0.3° штиль 0 - 20 км - облачно 643 635 +0.6 89% -1.9° 1 км - - - -
06:00 -1° С 1 - 10 км - облачно 643 635 -0.1 91% -2.3° 1 км - Влажная (без луж) - -
03:00 -0.6° С 2 - 10 км - облачно 643 635 +0.1 93% -1.6° 1 км - - - -
00:00 -0.1° С,С-З 3 - 10 км - облачно 642 635 0 91% -1.4° 1 км - - - -
Суббота, 8 Декабря
Время местн. Темп Ветер Видим Явления Облачность нижн/средн/верх Атм. давл. Влжн Точка росы ВНГО R Сост. почвы Tg s
Напр Скр Прв ур.ст ур.м изм
21:00 +0.3° С,С-З 2 - 10 км - облачно 642 635 +0.5 87% -1.6° 1 км - - - -
18:00 +0.6° С 3 - 10 км - облачно 642 634 +0.8 90% -0.9° 1 км - - - -
15:00 +1.5° З 2 - 20 км - облачно 641 633 +0.5 84% -0.9° 1 км - - - -
12:00 +2.4° З 2 - 50 км - преимущественно облачно 641 633 -0.1 77% -1.2° 1 км - - - -
09:00 штиль 0 - 50 км - преимущественно облачно 641 633 +1.2 86% -2.1° - - - - -
06:00 -1° штиль 0 - 10 км - ясно 640 632 -0.2 90% -2.5° более 2.5 км - - - -